Time;durP1;ratioP1;P1;durP2;ratioP2;P2;SDS_P1;SDS_P2;PMS_P1;PMS_P2;Temp;Humidity;BMP_temperature;BMP_pressure;BME280_temperature;BME280_humidity;BME280_pressure;Samples;Min_cycle;Max_cycle;Signal;HPM_P1;HPM_P2
2021/11/22 00:01:32;;;;;;;48.58;35.03;;;8.80;99.90;;;;;;4973173;28;20114;-51
2021/11/22 00:03:58;;;;;;;47.22;33.97;;;8.90;99.90;;;;;;4979569;28;20042;-50
2021/11/22 00:06:24;;;;;;;59.35;40.88;;;9.00;99.90;;;;;;4973013;28;20035;-50
2021/11/22 00:08:50;;;;;;;57.03;41.58;;;9.20;99.90;;;;;;4974338;28;20061;-51
2021/11/22 00:11:16;;;;;;;60.03;44.13;;;9.30;99.90;;;;;;4955998;28;20534;-49
2021/11/22 00:13:41;;;;;;;50.58;35.72;;;9.30;99.90;;;;;;4973903;28;20454;-49
2021/11/22 00:16:07;;;;;;;56.55;39.75;;;9.40;99.90;;;;;;5004298;28;20049;-51
2021/11/22 00:18:33;;;;;;;51.67;38.15;;;9.40;99.90;;;;;;5045487;28;20036;-50
2021/11/22 00:20:59;;;;;;;45.78;35.53;;;9.40;99.90;;;;;;5067702;28;20041;-50
2021/11/22 00:23:25;;;;;;;48.40;36.60;;;9.30;99.90;;;;;;5074867;28;20033;-49
2021/11/22 00:25:50;;;;;;;44.08;33.33;;;9.30;99.90;;;;;;5074919;28;20120;-49
2021/11/22 00:28:16;;;;;;;45.90;33.03;;;9.30;99.90;;;;;;5074734;28;20052;-49
2021/11/22 00:30:42;;;;;;;46.22;34.55;;;9.30;99.90;;;;;;5072783;28;20429;-50
2021/11/22 00:33:10;;;;;;;45.72;35.40;;;9.30;99.90;;;;;;5074551;28;20024;-49
2021/11/22 00:35:36;;;;;;;50.17;37.47;;;9.30;99.90;;;;;;5074358;28;20108;-49
2021/11/22 00:38:06;;;;;;;46.70;34.33;;;9.30;99.90;;;;;;5074969;28;20039;-51
2021/11/22 00:40:37;;;;;;;43.97;33.95;;;9.30;99.90;;;;;;5074825;28;20059;-49
2021/11/22 00:43:04;;;;;;;45.38;33.47;;;9.30;99.90;;;;;;5075029;28;20050;-48
2021/11/22 00:45:30;;;;;;;47.17;35.92;;;9.30;99.90;;;;;;5074434;28;20626;-49
2021/11/22 00:47:58;;;;;;;48.85;34.55;;;9.20;99.90;;;;;;5074589;28;20021;-50
2021/11/22 00:50:25;;;;;;;42.83;33.60;;;9.20;99.90;;;;;;5074428;28;20126;-50
2021/11/22 00:52:51;;;;;;;49.63;34.97;;;9.20;99.90;;;;;;5074550;28;20059;-51
2021/11/22 00:55:18;;;;;;;45.17;36.15;;;9.20;99.90;;;;;;5074555;28;20052;-50
2021/11/22 00:57:43;;;;;;;51.13;38.28;;;9.20;99.90;;;;;;5074449;28;20028;-50
2021/11/22 01:00:12;;;;;;;47.15;36.00;;;9.10;99.90;;;;;;5055594;28;20080;-49
2021/11/22 01:02:38;;;;;;;55.03;37.83;;;9.10;99.90;;;;;;5054909;28;20511;-48
2021/11/22 01:05:05;;;;;;;49.55;38.90;;;9.10;99.90;;;;;;5074354;28;20060;-50
2021/11/22 01:07:31;;;;;;;52.15;40.33;;;9.10;99.90;;;;;;5074159;28;20117;-48
2021/11/22 01:09:57;;;;;;;49.05;38.95;;;9.20;99.90;;;;;;5074248;28;20029;-50
2021/11/22 01:12:27;;;;;;;55.40;40.90;;;9.20;99.90;;;;;;5021799;28;20688;-49
2021/11/22 01:15:01;;;;;;;49.85;41.25;;;9.20;99.90;;;;;;5056133;28;20055;-51
2021/11/22 01:17:27;;;;;;;59.58;44.80;;;9.20;99.90;;;;;;5074384;28;20047;-50
2021/11/22 01:19:53;;;;;;;75.63;50.78;;;9.20;99.90;;;;;;5074147;28;20111;-51
2021/11/22 01:22:21;;;;;;;117.70;69.07;;;9.10;99.90;;;;;;5073812;28;20035;-50
2021/11/22 01:24:47;;;;;;;98.45;63.78;;;9.10;99.90;;;;;;5074000;28;20025;-50
2021/11/22 01:27:13;;;;;;;88.50;58.20;;;9.00;99.90;;;;;;5074004;28;20399;-50
2021/11/22 01:29:39;;;;;;;83.40;58.42;;;9.00;99.90;;;;;;5071558;28;20094;-50
2021/11/22 01:32:05;;;;;;;66.20;48.67;;;9.00;99.90;;;;;;5052038;28;20488;-49
2021/11/22 01:34:31;;;;;;;77.72;54.85;;;8.90;99.90;;;;;;5073492;28;20035;-49
2021/11/22 01:36:57;;;;;;;72.20;54.03;;;8.90;99.90;;;;;;5054881;28;20036;-51
2021/11/22 01:39:23;;;;;;;62.45;47.88;;;8.90;99.90;;;;;;5073660;28;20494;-49
2021/11/22 01:41:49;;;;;;;53.75;42.97;;;8.90;99.90;;;;;;5054801;28;20055;-49
2021/11/22 01:44:15;;;;;;;58.17;45.38;;;9.00;99.90;;;;;;5073334;28;20032;-50
2021/11/22 01:46:41;;;;;;;58.85;44.03;;;8.90;99.90;;;;;;5072608;28;20069;-50
2021/11/22 01:49:07;;;;;;;56.83;43.33;;;8.90;99.90;;;;;;5073698;28;20028;-50
2021/11/22 01:51:33;;;;;;;50.63;39.67;;;8.90;99.90;;;;;;5073193;28;20044;-49
2021/11/22 01:53:59;;;;;;;49.00;38.70;;;9.00;99.90;;;;;;5037792;28;20028;-49
2021/11/22 01:56:25;;;;;;;50.20;38.95;;;8.90;99.90;;;;;;5054605;28;20510;-49
2021/11/22 01:58:52;;;;;;;49.17;38.92;;;8.90;99.90;;;;;;5073059;28;20025;-50
2021/11/22 02:01:18;;;;;;;43.00;33.88;;;8.90;99.90;;;;;;5073295;28;20531;-49
2021/11/22 02:03:44;;;;;;;42.40;32.75;;;8.80;99.90;;;;;;5072860;28;20119;-49
2021/11/22 02:06:10;;;;;;;39.30;31.05;;;8.80;99.90;;;;;;5073037;28;20029;-50
2021/11/22 02:08:36;;;;;;;39.63;31.08;;;8.70;99.90;;;;;;5072552;28;20036;-49
2021/11/22 02:11:04;;;;;;;37.63;28.85;;;8.70;99.90;;;;;;5054124;28;20033;-50
2021/11/22 02:13:30;;;;;;;37.15;27.73;;;8.70;99.90;;;;;;5072675;28;20385;-50
2021/11/22 02:15:56;;;;;;;39.97;28.83;;;8.60;99.90;;;;;;5072955;28;20437;-51
2021/11/22 02:18:22;;;;;;;38.63;25.33;;;8.50;99.90;;;;;;5072893;28;20401;-49
2021/11/22 02:20:48;;;;;;;36.83;26.30;;;8.00;99.90;;;;;;5072709;28;20086;-50
2021/11/22 02:23:15;;;;;;;33.55;25.70;;;7.80;99.90;;;;;;5072804;28;20032;-51
2021/11/22 02:25:43;;;;;;;34.45;26.15;;;7.70;99.90;;;;;;5072810;28;20058;-50
2021/11/22 02:28:10;;;;;;;37.13;27.58;;;7.90;99.90;;;;;;5072696;28;20082;-50
2021/11/22 02:30:40;;;;;;;34.65;26.20;;;7.90;99.90;;;;;;5053857;28;20032;-51
2021/11/22 02:33:09;;;;;;;36.55;27.13;;;8.00;99.90;;;;;;5072855;28;20444;-50
2021/11/22 02:35:41;;;;;;;33.00;25.67;;;8.20;99.90;;;;;;5072720;28;20024;-51
2021/11/22 02:38:07;;;;;;;34.50;24.55;;;8.20;99.90;;;;;;5072607;28;20032;-50
2021/11/22 02:40:33;;;;;;;33.88;24.88;;;8.30;99.90;;;;;;5053732;28;20033;-51
2021/11/22 02:42:59;;;;;;;35.65;24.23;;;8.40;99.90;;;;;;5036425;28;20056;-49
2021/11/22 02:45:25;;;;;;;35.60;25.55;;;8.30;99.90;;;;;;5053551;28;20040;-51
2021/11/22 02:47:52;;;;;;;33.85;24.58;;;8.30;99.90;;;;;;5072483;28;20491;-51
2021/11/22 02:50:21;;;;;;;31.40;23.98;;;8.40;99.90;;;;;;5072739;28;20661;-50
2021/11/22 02:52:49;;;;;;;35.28;25.42;;;8.40;99.90;;;;;;5072445;28;20020;-50
2021/11/22 02:55:17;;;;;;;33.03;25.52;;;8.50;99.90;;;;;;5072549;28;20032;-50
2021/11/22 02:57:43;;;;;;;33.30;25.50;;;8.50;99.90;;;;;;5072252;28;20044;-51
2021/11/22 03:00:20;;;;;;;31.85;24.50;;;8.50;99.90;;;;;;5053690;28;20032;-49
2021/11/22 03:02:46;;;;;;;32.53;25.95;;;8.50;99.90;;;;;;5072046;28;20016;-49
2021/11/22 03:05:12;;;;;;;32.67;25.15;;;8.50;99.90;;;;;;5072273;28;20113;-50
2021/11/22 03:07:38;;;;;;;33.03;24.90;;;8.50;99.90;;;;;;5071995;28;20036;-50
2021/11/22 03:10:07;;;;;;;33.65;25.25;;;8.50;99.90;;;;;;5072213;28;20028;-50
2021/11/22 03:12:33;;;;;;;32.03;24.45;;;8.50;99.90;;;;;;5049313;28;20171;-51
2021/11/22 03:15:01;;;;;;;38.20;24.92;;;8.30;99.90;;;;;;5049782;28;20040;-50
2021/11/22 03:17:26;;;;;;;32.97;24.45;;;8.30;99.90;;;;;;5049769;28;20132;-49
2021/11/22 03:19:52;;;;;;;33.80;25.38;;;8.30;99.90;;;;;;5016367;28;20124;-49
2021/11/22 03:22:18;;;;;;;35.42;24.63;;;8.20;99.90;;;;;;5032842;28;20082;-51
2021/11/22 03:24:44;;;;;;;32.42;25.65;;;8.30;99.90;;;;;;5016428;28;20523;-49
2021/11/22 03:27:10;;;;;;;32.35;25.63;;;8.30;99.90;;;;;;5049504;28;20033;-51
2021/11/22 03:29:36;;;;;;;34.65;25.98;;;8.10;99.90;;;;;;5049760;28;20036;-50
2021/11/22 03:32:02;;;;;;;47.65;25.98;;;8.20;99.90;;;;;;5016318;28;20037;-52
2021/11/22 03:34:29;;;;;;;34.40;25.45;;;8.30;99.90;;;;;;5049548;28;20029;-49
2021/11/22 03:37:01;;;;;;;38.72;27.75;;;8.30;99.90;;;;;;5049611;28;20384;-52
2021/11/22 03:39:26;;;;;;;45.85;27.38;;;8.40;99.90;;;;;;5049446;28;20037;-50
2021/11/22 03:41:55;;;;;;;36.83;25.70;;;8.50;99.90;;;;;;5049660;28;20032;-51
2021/11/22 03:44:21;;;;;;;37.00;25.55;;;8.50;99.90;;;;;;5068479;28;20072;-50
2021/11/22 03:46:52;;;;;;;37.72;26.52;;;8.60;99.90;;;;;;5072130;28;20783;-50
2021/11/22 03:49:18;;;;;;;31.98;25.45;;;8.50;99.90;;;;;;5071817;28;20029;-51
2021/11/22 03:51:44;;;;;;;36.20;25.38;;;8.60;99.90;;;;;;5071805;28;20479;-52
2021/11/22 03:54:11;;;;;;;37.88;26.80;;;8.60;99.90;;;;;;5072113;28;20029;-50
2021/11/22 03:56:38;;;;;;;32.72;25.88;;;8.60;99.90;;;;;;5071726;28;20472;-49
2021/11/22 03:59:05;;;;;;;34.30;24.13;;;8.50;99.90;;;;;;5071895;28;20035;-50
2021/11/22 04:01:31;;;;;;;36.40;26.70;;;8.50;99.90;;;;;;5071832;28;20257;-50
2021/11/22 04:03:57;;;;;;;36.10;27.98;;;8.30;99.90;;;;;;5071687;28;20040;-52
2021/11/22 04:06:23;;;;;;;38.83;26.25;;;7.80;99.90;;;;;;5052884;28;20033;-50
2021/11/22 04:08:49;;;;;;;33.55;27.08;;;7.40;99.90;;;;;;5071787;28;20036;-51
2021/11/22 04:11:15;;;;;;;40.08;27.45;;;7.10;99.90;;;;;;5073787;28;20463;-49
2021/11/22 04:13:41;;;;;;;37.03;27.90;;;7.00;99.90;;;;;;5075287;28;20056;-51
2021/11/22 04:16:09;;;;;;;39.80;29.00;;;7.00;99.90;;;;;;5056526;28;20045;-50
2021/11/22 04:18:35;;;;;;;44.35;28.58;;;7.00;99.90;;;;;;5075333;28;20636;-51
2021/11/22 04:21:01;;;;;;;38.70;28.98;;;7.00;99.90;;;;;;5075205;28;20031;-50
2021/11/22 04:23:27;;;;;;;38.03;26.90;;;7.30;99.90;;;;;;5074975;28;20033;-50
2021/11/22 04:25:53;;;;;;;39.90;28.27;;;7.30;99.90;;;;;;5075193;28;20021;-51
2021/11/22 04:28:19;;;;;;;38.95;28.27;;;7.30;99.90;;;;;;5075019;28;20024;-50
2021/11/22 04:30:45;;;;;;;37.30;28.58;;;7.50;99.90;;;;;;5074915;28;20027;-49
2021/11/22 04:33:11;;;;;;;42.47;27.48;;;7.60;99.90;;;;;;4989730;28;20033;-51
2021/11/22 04:35:37;;;;;;;35.30;25.80;;;7.70;99.90;;;;;;5089754;28;20709;-50
2021/11/22 04:38:03;;;;;;;40.15;27.23;;;7.80;99.90;;;;;;5074974;28;20547;-51
2021/11/22 04:40:30;;;;;;;41.72;28.52;;;7.90;99.90;;;;;;5074783;28;20446;-50
2021/11/22 04:42:55;;;;;;;37.58;26.33;;;7.80;99.90;;;;;;5055992;28;20123;-49
2021/11/22 04:45:26;;;;;;;37.13;26.92;;;7.80;99.90;;;;;;5055891;28;20112;-50
2021/11/22 04:47:53;;;;;;;37.60;26.38;;;7.80;99.90;;;;;;5074649;28;20029;-49
2021/11/22 04:50:19;;;;;;;36.13;27.15;;;7.90;99.90;;;;;;5074688;28;20028;-49
2021/11/22 04:52:48;;;;;;;39.55;27.50;;;7.90;99.90;;;;;;5072436;28;20480;-50
2021/11/22 04:55:15;;;;;;;37.58;28.63;;;7.90;99.90;;;;;;5074448;28;20386;-51
2021/11/22 04:57:42;;;;;;;33.25;26.58;;;7.90;99.90;;;;;;5074586;28;20101;-50
2021/11/22 05:00:09;;;;;;;41.15;29.98;;;7.90;99.90;;;;;;5055284;28;20528;-51
2021/11/22 05:02:35;;;;;;;37.70;28.85;;;8.00;99.90;;;;;;5062530;28;20045;-51
2021/11/22 05:05:01;;;;;;;36.08;28.20;;;8.10;99.90;;;;;;5035531;28;20102;-51
2021/11/22 05:07:26;;;;;;;37.10;27.40;;;8.10;99.90;;;;;;5070957;28;20040;-49
2021/11/22 05:09:52;;;;;;;40.53;28.58;;;8.20;99.90;;;;;;5074294;28;20115;-49
2021/11/22 05:12:18;;;;;;;39.75;28.80;;;8.20;99.90;;;;;;5072052;28;20060;-50
2021/11/22 05:14:44;;;;;;;40.13;29.27;;;8.30;99.90;;;;;;5074109;28;20063;-50
2021/11/22 05:17:10;;;;;;;37.85;28.60;;;8.40;99.90;;;;;;5074165;28;20429;-50
2021/11/22 05:19:36;;;;;;;42.03;29.52;;;8.40;99.90;;;;;;5088809;28;20040;-51
2021/11/22 05:22:03;;;;;;;45.97;30.00;;;8.20;99.90;;;;;;5074004;28;20573;-49
2021/11/22 05:24:29;;;;;;;59.20;33.83;;;8.30;99.90;;;;;;5071567;28;20040;-51
2021/11/22 05:26:55;;;;;;;41.78;28.65;;;8.20;99.90;;;;;;5073819;28;20024;-50
2021/11/22 05:29:21;;;;;;;63.40;41.88;;;8.30;99.90;;;;;;5088636;28;20055;-52
2021/11/22 05:31:48;;;;;;;43.75;30.10;;;8.20;99.90;;;;;;5073834;28;20036;-51
2021/11/22 05:34:17;;;;;;;50.03;33.47;;;8.20;99.90;;;;;;5074163;28;20020;-50
2021/11/22 05:36:43;;;;;;;49.33;32.72;;;8.30;99.90;;;;;;5073664;28;20035;-51
2021/11/22 05:39:08;;;;;;;40.33;28.05;;;8.30;99.90;;;;;;5073606;28;20021;-50
2021/11/22 05:41:34;;;;;;;38.35;28.80;;;8.40;99.90;;;;;;5088223;28;20115;-50
2021/11/22 05:44:00;;;;;;;36.58;28.52;;;8.40;99.90;;;;;;5073870;28;20131;-50
2021/11/22 05:46:26;;;;;;;38.05;28.27;;;8.50;99.90;;;;;;5037637;28;20472;-50
2021/11/22 05:48:52;;;;;;;41.80;28.33;;;8.50;99.90;;;;;;5071402;28;20090;-51
2021/11/22 05:51:18;;;;;;;39.20;27.42;;;8.60;99.90;;;;;;5073475;28;20031;-51
2021/11/22 05:53:48;;;;;;;35.25;27.45;;;8.50;99.90;;;;;;5073191;28;20067;-50
2021/11/22 05:56:15;;;;;;;38.13;28.80;;;8.60;99.90;;;;;;5073590;28;20372;-50
2021/11/22 05:58:41;;;;;;;37.60;28.45;;;8.70;99.90;;;;;;5073757;28;20440;-51
2021/11/22 06:01:07;;;;;;;36.70;27.33;;;8.80;99.90;;;;;;5072835;28;20029;-51
2021/11/22 06:03:34;;;;;;;36.22;26.85;;;8.90;99.90;;;;;;5070962;28;20140;-50
2021/11/22 06:06:01;;;;;;;32.83;25.35;;;9.00;99.90;;;;;;5073248;28;20051;-50
2021/11/22 06:08:27;;;;;;;38.15;27.40;;;9.00;99.90;;;;;;5073322;28;20024;-50
2021/11/22 06:10:53;;;;;;;35.85;27.05;;;9.00;99.90;;;;;;5073034;28;20085;-49
2021/11/22 06:13:21;;;;;;;38.83;30.20;;;9.10;99.90;;;;;;5070643;28;20048;-50
2021/11/22 06:15:47;;;;;;;44.85;32.25;;;9.10;99.90;;;;;;5000603;28;20041;-51
2021/11/22 06:18:15;;;;;;;138.80;95.80;;;9.20;99.90;;;;;;5050812;28;20068;-50
2021/11/22 06:20:41;;;;;;;83.85;62.80;;;9.30;99.90;;;;;;5050402;28;20128;-51
2021/11/22 06:23:07;;;;;;;65.80;48.75;;;9.50;99.90;;;;;;5050439;28;20060;-51
2021/11/22 06:25:33;;;;;;;62.38;44.00;;;9.60;99.90;;;;;;5049789;28;20045;-49
2021/11/22 06:27:59;;;;;;;48.95;37.22;;;10.00;99.90;;;;;;5050450;28;20032;-50
2021/11/22 06:30:25;;;;;;;41.80;32.20;;;10.40;99.90;;;;;;5049531;28;20044;-51
2021/11/22 06:32:53;;;;;;;44.17;32.80;;;10.90;99.90;;;;;;5049996;28;20631;-49
2021/11/22 06:35:20;;;;;;;45.90;35.10;;;11.50;99.90;;;;;;5050377;28;20045;-49
2021/11/22 06:37:46;;;;;;;48.65;31.77;;;12.00;99.90;;;;;;5049928;28;20472;-51
2021/11/22 06:40:12;;;;;;;38.33;30.73;;;12.40;99.90;;;;;;5048720;28;20116;-49
2021/11/22 06:42:38;;;;;;;44.78;31.08;;;12.80;99.90;;;;;;5042051;28;20045;-51
2021/11/22 06:45:05;;;;;;;43.80;32.28;;;13.10;99.90;;;;;;5049296;28;20029;-52
2021/11/22 06:47:31;;;;;;;47.50;31.95;;;13.30;99.90;;;;;;5068426;28;20048;-51
2021/11/22 06:49:57;;;;;;;37.30;29.88;;;13.50;99.90;;;;;;5070292;28;20070;-52
2021/11/22 06:52:23;;;;;;;39.33;30.80;;;13.30;99.90;;;;;;5070446;28;20043;-51
2021/11/22 06:54:50;;;;;;;41.83;33.70;;;13.70;99.90;;;;;;5068735;28;20037;-52
2021/11/22 06:57:17;;;;;;;49.10;37.20;;;;;;;;;;5071475;28;20030;-50
2021/11/22 06:59:43;;;;;;;46.53;34.75;;;;;;;;;;5071402;28;20028;-51
2021/11/22 07:02:14;;;;;;;36.00;27.25;;;15.40;99.90;;;;;;5070346;28;20448;-51
2021/11/22 07:04:41;;;;;;;47.13;35.03;;;15.40;99.90;;;;;;5071798;28;20033;-50
2021/11/22 07:07:07;;;;;;;41.15;32.63;;;14.90;99.90;;;;;;5068375;28;20025;-50
2021/11/22 07:09:33;;;;;;;47.05;36.60;;;14.60;99.90;;;;;;5071682;28;20028;-51
2021/11/22 07:11:59;;;;;;;44.47;32.80;;;14.50;99.90;;;;;;5046923;28;20116;-51
2021/11/22 07:14:25;;;;;;;47.25;33.80;;;14.10;99.90;;;;;;5049758;28;20128;-50
2021/11/22 07:16:53;;;;;;;46.20;32.42;;;13.40;99.90;;;;;;5049076;28;20048;-50
2021/11/22 07:19:19;;;;;;;54.35;35.13;;;13.20;99.90;;;;;;5049792;28;20064;-51
2021/11/22 07:21:45;;;;;;;57.38;35.65;;;13.20;99.90;;;;;;5049786;28;20040;-50
2021/11/22 07:24:12;;;;;;;46.72;31.38;;;13.10;99.90;;;;;;5049154;28;20029;-51
2021/11/22 07:26:38;;;;;;;46.80;27.38;;;13.00;99.90;;;;;;5047837;28;20041;-51
2021/11/22 07:29:04;;;;;;;43.65;27.02;;;12.70;99.90;;;;;;5048152;28;20033;-57
2021/11/22 07:31:31;;;;;;;43.03;27.70;;;12.80;99.90;;;;;;5048831;28;20033;-52
2021/11/22 07:33:57;;;;;;;44.17;28.05;;;13.80;99.90;;;;;;5043679;28;20072;-54
2021/11/22 07:36:23;;;;;;;59.25;40.35;;;14.10;99.90;;;;;;5042086;28;20041;-55
2021/11/22 07:38:49;;;;;;;46.60;30.75;;;13.90;99.90;;;;;;5022300;28;20476;-50
2021/11/22 07:41:16;;;;;;;35.38;25.50;;;13.70;99.90;;;;;;5047674;28;20103;-51
2021/11/22 07:43:41;;;;;;;37.13;25.80;;;13.00;99.90;;;;;;5062916;28;20048;-51
2021/11/22 07:46:07;;;;;;;34.90;26.08;;;12.80;99.90;;;;;;5086586;28;20186;-59
2021/11/22 07:48:34;;;;;;;35.67;25.85;;;12.20;99.90;;;;;;5055771;28;20029;-47
2021/11/22 07:51:02;;;;;;;37.30;26.35;;;11.90;99.90;;;;;;5087112;28;20029;-52
2021/11/22 07:53:28;;;;;;;37.20;26.60;;;12.00;99.90;;;;;;5055730;28;20041;-52
2021/11/22 07:55:54;;;;;;;35.88;26.23;;;11.80;99.90;;;;;;5061910;28;20024;-50
2021/11/22 07:58:20;;;;;;;46.22;28.65;;;11.20;99.90;;;;;;5075623;28;20390;-53
2021/11/22 08:00:46;;;;;;;43.72;30.30;;;11.20;99.90;;;;;;5056684;28;20037;-50
2021/11/22 08:03:12;;;;;;;37.20;26.67;;;11.70;99.90;;;;;;5075333;28;20464;-51
2021/11/22 08:05:38;;;;;;;32.67;24.08;;;11.70;99.90;;;;;;5075618;28;20056;-53
2021/11/22 08:08:04;;;;;;;31.13;25.25;;;11.50;99.90;;;;;;5075192;28;20074;-52
2021/11/22 08:10:33;;;;;;;38.83;25.73;;;11.20;99.90;;;;;;5073302;28;20044;-50
2021/11/22 08:13:02;;;;;;;36.92;24.90;;;11.10;99.90;;;;;;5070329;28;20106;-49
2021/11/22 08:15:30;;;;;;;35.22;25.75;;;11.00;99.90;;;;;;5076082;28;20024;-50
2021/11/22 08:17:58;;;;;;;35.70;25.15;;;10.70;99.90;;;;;;5038133;28;20158;-50
2021/11/22 08:20:24;;;;;;;36.30;26.20;;;10.90;99.90;;;;;;5074496;28;20884;-49
2021/11/22 08:22:50;;;;;;;34.03;26.13;;;11.00;99.90;;;;;;5001546;28;20468;-50
2021/11/22 08:25:19;;;;;;;39.10;26.08;;;10.90;99.90;;;;;;5072022;28;20123;-48
2021/11/22 08:27:45;;;;;;;36.95;25.90;;;11.20;99.90;;;;;;5074591;28;20037;-50
2021/11/22 08:30:15;;;;;;;35.47;26.13;;;11.30;99.90;;;;;;5051876;28;20045;-49
2021/11/22 08:32:43;;;;;;;31.00;22.63;;;11.40;99.90;;;;;;5035981;28;20044;-50
2021/11/22 08:35:09;;;;;;;33.67;26.33;;;11.40;99.90;;;;;;4992932;28;20039;-50
2021/11/22 08:37:37;;;;;;;36.25;26.58;;;11.40;99.90;;;;;;4960687;28;20042;-51
2021/11/22 08:40:05;;;;;;;39.70;30.98;;;11.40;99.90;;;;;;4993204;28;20183;-49
2021/11/22 08:42:30;;;;;;;40.55;29.20;;;11.50;99.90;;;;;;4973293;28;20046;-50
2021/11/22 08:44:57;;;;;;;42.63;29.10;;;11.50;99.90;;;;;;4956572;28;20038;-50
2021/11/22 08:47:23;;;;;;;40.20;29.75;;;11.50;99.90;;;;;;4939676;28;20051;-50
2021/11/22 08:49:49;;;;;;;62.00;42.70;;;11.40;99.90;;;;;;4973533;28;20047;-50
2021/11/22 08:52:15;;;;;;;59.78;43.67;;;11.40;99.90;;;;;;4956794;28;20041;-50
2021/11/22 08:54:41;;;;;;;154.40;100.95;;;11.40;99.90;;;;;;4973448;28;20038;-50
2021/11/22 08:57:08;;;;;;;47.72;35.10;;;11.40;99.90;;;;;;4973169;28;20034;-50
2021/11/22 08:59:35;;;;;;;32.08;25.75;;;11.60;99.90;;;;;;4986464;28;20049;-50
2021/11/22 09:02:01;;;;;;;34.70;25.45;;;11.70;99.90;;;;;;5024906;28;20048;-50
2021/11/22 09:04:27;;;;;;;72.55;43.95;;;11.80;99.90;;;;;;5031981;28;20046;-50
2021/11/22 09:06:53;;;;;;;35.80;25.15;;;11.80;99.90;;;;;;5032025;28;20132;-50
2021/11/22 09:09:19;;;;;;;36.42;27.98;;;11.60;99.90;;;;;;4990716;28;20042;-50
2021/11/22 09:11:46;;;;;;;42.80;30.67;;;11.50;99.90;;;;;;4956094;28;20047;-50
2021/11/22 09:14:13;;;;;;;37.05;27.10;;;11.50;99.90;;;;;;5069062;28;20047;-50
2021/11/22 09:16:40;;;;;;;54.63;35.60;;;11.50;99.90;;;;;;5065872;28;20028;-51
2021/11/22 09:19:06;;;;;;;46.13;29.60;;;11.60;99.90;;;;;;4996936;28;20627;-52
2021/11/22 09:21:32;;;;;;;45.90;30.20;;;11.60;99.90;;;;;;5052228;28;20099;-50
2021/11/22 09:24:00;;;;;;;42.10;31.13;;;11.50;99.90;;;;;;5072890;28;20041;-51
2021/11/22 09:26:25;;;;;;;40.92;28.95;;;11.60;99.90;;;;;;5072756;28;20108;-51
2021/11/22 09:28:52;;;;;;;44.80;30.10;;;11.80;99.90;;;;;;5090355;28;20115;-50
2021/11/22 09:31:18;;;;;;;49.65;31.95;;;11.80;99.90;;;;;;5090171;28;20047;-51
2021/11/22 09:33:46;;;;;;;50.35;35.35;;;11.70;99.90;;;;;;5090100;28;20426;-51
2021/11/22 09:36:12;;;;;;;46.65;35.78;;;11.70;99.90;;;;;;5087620;28;20498;-51
2021/11/22 09:38:38;;;;;;;49.30;32.40;;;11.70;99.90;;;;;;5080805;28;20116;-52
2021/11/22 09:41:04;;;;;;;40.95;33.38;;;11.60;99.90;;;;;;5085732;28;20116;-51
2021/11/22 09:43:30;;;;;;;45.63;33.45;;;11.50;99.90;;;;;;5081853;28;20032;-51
2021/11/22 09:45:57;;;;;;;50.70;37.42;;;11.60;99.90;;;;;;5073098;28;20028;-51
2021/11/22 09:48:23;;;;;;;43.95;32.15;;;11.40;99.90;;;;;;5088287;28;20091;-51
2021/11/22 09:50:49;;;;;;;38.53;32.25;;;11.40;99.90;;;;;;5089989;28;20020;-52
2021/11/22 09:53:15;;;;;;;42.92;32.28;;;11.60;99.90;;;;;;5090056;28;20412;-51
2021/11/22 09:55:42;;;;;;;46.22;34.45;;;11.70;99.90;;;;;;5090049;28;20099;-51
2021/11/22 09:58:10;;;;;;;48.42;33.35;;;11.80;99.90;;;;;;5089911;28;20370;-52
2021/11/22 10:00:43;;;;;;;42.88;32.70;;;11.70;99.90;;;;;;5074645;28;20123;-51
2021/11/22 10:03:14;;;;;;;41.17;31.80;;;11.60;99.90;;;;;;5072162;28;20426;-51
2021/11/22 10:05:42;;;;;;;48.10;32.28;;;11.60;99.90;;;;;;5072273;28;20116;-51
2021/11/22 10:08:19;;;;;;;48.13;34.13;;;11.60;99.90;;;;;;5071400;28;20112;-52
2021/11/22 10:10:54;;;;;;;49.42;37.05;;;11.60;99.90;;;;;;5068186;28;20036;-51
2021/11/22 10:13:45;;;;;;;61.03;40.70;;;11.50;99.90;;;;;;5069719;28;20091;-51
2021/11/22 10:16:16;;;;;;;59.50;38.60;;;11.30;99.90;;;;;;5071996;28;20112;-52
2021/11/22 10:18:48;;;;;;;58.60;40.70;;;11.30;99.90;;;;;;5071988;28;20489;-51
2021/11/22 10:21:17;;;;;;;52.15;34.00;;;11.50;99.90;;;;;;5071870;28;20507;-51
2021/11/22 10:23:45;;;;;;;52.35;36.13;;;11.90;99.90;;;;;;5071738;28;20047;-50
2021/11/22 10:26:14;;;;;;;55.13;37.17;;;12.10;99.90;;;;;;5072080;28;20024;-51
2021/11/22 10:28:43;;;;;;;57.80;35.10;;;11.80;99.90;;;;;;5071747;28;20032;-51
2021/11/22 10:31:18;;;;;;;46.28;32.90;;;11.70;99.90;;;;;;5071931;28;20082;-51
2021/11/22 10:33:46;;;;;;;50.40;34.13;;;11.50;99.90;;;;;;5071721;28;20030;-51
2021/11/22 10:36:15;;;;;;;50.92;36.10;;;11.60;99.90;;;;;;5070738;28;20870;-50
2021/11/22 10:39:03;;;;;;;56.72;37.83;;;11.90;99.90;;;;;;5071549;28;20540;-52
2021/11/22 10:41:35;;;;;;;53.00;35.30;;;12.20;99.90;;;;;;4992812;28;20501;-51
2021/11/22 10:44:11;;;;;;;67.13;42.00;;;12.40;99.90;;;;;;5006657;28;20046;-51
2021/11/22 10:46:52;;;;;;;48.92;36.22;;;12.50;99.90;;;;;;5009239;28;20061;-52
2021/11/22 10:49:39;;;;;;;61.03;43.47;;;12.50;99.90;;;;;;5008972;28;20796;-50
2021/11/22 10:52:25;;;;;;;56.70;39.20;;;12.20;99.90;;;;;;5009047;28;20053;-51
2021/11/22 10:54:54;;;;;;;63.63;48.50;;;12.40;99.90;;;;;;5009348;28;20025;-56
2021/11/22 10:57:20;;;;;;;51.38;40.95;;;12.30;99.90;;;;;;5008942;28;20165;-51
2021/11/22 10:59:46;;;;;;;55.15;40.10;;;12.70;99.90;;;;;;5009135;28;20048;-55
2021/11/22 11:02:12;;;;;;;58.42;46.53;;;12.40;99.90;;;;;;4976577;28;20148;-50
2021/11/22 11:04:44;;;;;;;56.17;43.58;;;12.50;99.90;;;;;;5008855;28;20046;-50
2021/11/22 11:07:10;;;;;;;56.65;43.58;;;12.60;99.90;;;;;;4992393;28;20038;-54
2021/11/22 11:09:51;;;;;;;59.90;45.33;;;12.60;99.90;;;;;;5011605;28;20497;-52
2021/11/22 11:12:24;;;;;;;47.78;38.35;;;12.90;99.90;;;;;;5016346;28;20398;-47
2021/11/22 11:14:52;;;;;;;53.28;39.00;;;12.90;99.90;;;;;;5007344;28;20036;-51
2021/11/22 11:17:22;;;;;;;49.97;37.40;;;13.50;99.90;;;;;;5007890;28;20092;-48
2021/11/22 11:19:52;;;;;;;47.85;38.90;;;13.80;99.90;;;;;;5071660;28;20032;-54
2021/11/22 11:22:19;;;;;;;49.25;37.90;;;14.20;99.90;;;;;;5073341;28;20037;-52
2021/11/22 11:24:44;;;;;;;44.45;37.00;;;14.60;99.90;;;;;;5074779;28;20040;-52
2021/11/22 11:27:10;;;;;;;48.40;38.17;;;14.20;99.90;;;;;;5074658;28;20029;-54
2021/11/22 11:29:36;;;;;;;46.55;37.90;;;14.50;99.90;;;;;;5089531;28;20040;-53
2021/11/22 11:32:03;;;;;;;47.97;39.33;;;14.60;99.90;;;;;;5075015;28;20075;-50
2021/11/22 11:34:33;;;;;;;47.53;39.42;;;14.10;99.90;;;;;;5074887;28;20025;-50
2021/11/22 11:37:11;;;;;;;44.95;36.25;;;13.70;99.90;;;;;;5074918;28;20028;-49
2021/11/22 11:40:07;;;;;;;44.97;37.03;;;13.60;99.90;;;;;;5072654;28;20563;-53
2021/11/22 11:43:14;;;;;;;47.13;37.28;;;13.10;99.90;;;;;;5074659;28;20021;-53
2021/11/22 11:45:54;;;;;;;48.60;40.28;;;13.00;99.90;;;;;;5031730;28;20037;-53
2021/11/22 11:48:28;;;;;;;47.47;39.97;;;13.10;99.90;;;;;;5032280;28;20049;-51
2021/11/22 11:51:09;;;;;;;105.55;72.88;;;13.30;99.90;;;;;;5032210;28;20076;-51
2021/11/22 11:53:37;;;;;;;62.22;48.75;;;13.30;99.90;;;;;;5032228;28;20029;-50
2021/11/22 11:56:13;;;;;;;64.93;55.17;;;13.30;99.90;;;;;;5032077;28;20409;-52
2021/11/22 11:58:40;;;;;;;53.90;46.03;;;13.30;99.90;;;;;;4999014;28;20473;-53
2021/11/22 12:01:14;;;;;;;58.97;47.65;;;13.30;99.90;;;;;;5031999;28;20116;-51
2021/11/22 12:04:06;;;;;;;59.75;50.40;;;13.10;99.90;;;;;;5015262;28;20049;-51
2021/11/22 12:06:52;;;;;;;60.53;47.58;;;13.40;99.90;;;;;;5031984;28;20105;-52
2021/11/22 12:09:39;;;;;;;60.53;50.55;;;13.30;99.90;;;;;;5031948;28;20045;-51
2021/11/22 12:12:08;;;;;;;144.82;92.35;;;13.20;99.90;;;;;;5015143;28;20040;-51
2021/11/22 12:14:51;;;;;;;70.15;53.63;;;13.00;99.90;;;;;;5031763;28;20085;-52
2021/11/22 12:17:35;;;;;;;65.03;50.47;;;12.50;99.90;;;;;;5031735;28;20037;-52
2021/11/22 12:20:07;;;;;;;75.18;52.08;;;12.10;99.90;;;;;;5031776;28;20051;-51
2021/11/22 12:22:39;;;;;;;82.35;58.17;;;12.30;99.90;;;;;;5074075;28;20025;-52
2021/11/22 12:25:06;;;;;;;78.53;59.60;;;12.20;99.90;;;;;;5074113;28;20127;-51
2021/11/22 12:27:37;;;;;;;55.90;46.75;;;12.20;99.90;;;;;;5073976;28;20028;-51
2021/11/22 12:30:26;;;;;;;89.13;62.33;;;11.70;99.90;;;;;;5073222;28;20025;-53
2021/11/22 12:32:52;;;;;;;81.75;59.25;;;11.60;99.90;;;;;;5054035;28;20062;-52
2021/11/22 12:35:35;;;;;;;72.70;58.67;;;11.50;99.90;;;;;;5073809;28;20467;-52
2021/11/22 12:38:34;;;;;;;76.03;59.10;;;11.80;99.90;;;;;;5054865;28;20039;-54